sensor_id;sensor_type;location;lat;lon;timestamp;P1;durP1;ratioP1;P2;durP2;ratioP2
5813;SDS011;2933;52.302;8.134;2022-10-23T00:03:53;4.00;;;3.70;;
5813;SDS011;2933;52.302;8.134;2022-10-23T00:08:56;4.97;;;4.57;;
5813;SDS011;2933;52.302;8.134;2022-10-23T00:13:58;4.40;;;4.10;;
5813;SDS011;2933;52.302;8.134;2022-10-23T00:19:03;5.00;;;4.10;;
5813;SDS011;2933;52.302;8.134;2022-10-23T00:24:05;4.83;;;4.43;;
5813;SDS011;2933;52.302;8.134;2022-10-23T00:29:09;4.53;;;4.13;;
5813;SDS011;2933;52.302;8.134;2022-10-23T00:34:13;4.80;;;4.27;;
5813;SDS011;2933;52.302;8.134;2022-10-23T00:39:14;5.00;;;4.50;;
5813;SDS011;2933;52.302;8.134;2022-10-23T00:49:56;5.60;;;4.43;;
5813;SDS011;2933;52.302;8.134;2022-10-23T00:55:00;4.53;;;4.27;;
5813;SDS011;2933;52.302;8.134;2022-10-23T01:00:03;4.13;;;3.87;;
5813;SDS011;2933;52.302;8.134;2022-10-23T01:05:07;5.00;;;4.60;;
5813;SDS011;2933;52.302;8.134;2022-10-23T01:10:10;7.03;;;4.90;;
5813;SDS011;2933;52.302;8.134;2022-10-23T01:15:21;6.33;;;4.83;;
5813;SDS011;2933;52.302;8.134;2022-10-23T01:20:39;5.40;;;4.90;;
5813;SDS011;2933;52.302;8.134;2022-10-23T01:25:53;6.23;;;4.50;;
5813;SDS011;2933;52.302;8.134;2022-10-23T01:31:05;4.93;;;4.60;;
5813;SDS011;2933;52.302;8.134;2022-10-23T01:36:12;6.50;;;4.77;;
5813;SDS011;2933;52.302;8.134;2022-10-23T01:41:16;11.00;;;5.30;;
5813;SDS011;2933;52.302;8.134;2022-10-23T01:46:25;6.33;;;5.40;;
5813;SDS011;2933;52.302;8.134;2022-10-23T01:51:28;5.33;;;4.87;;
5813;SDS011;2933;52.302;8.134;2022-10-23T01:56:32;5.30;;;4.50;;
5813;SDS011;2933;52.302;8.134;2022-10-23T02:01:36;4.60;;;4.20;;
5813;SDS011;2933;52.302;8.134;2022-10-23T02:06:42;4.90;;;4.50;;
5813;SDS011;2933;52.302;8.134;2022-10-23T02:11:46;4.80;;;4.37;;
5813;SDS011;2933;52.302;8.134;2022-10-23T02:16:58;4.57;;;4.27;;
5813;SDS011;2933;52.302;8.134;2022-10-23T02:22:08;7.30;;;4.00;;
5813;SDS011;2933;52.302;8.134;2022-10-23T02:27:14;6.40;;;4.20;;
5813;SDS011;2933;52.302;8.134;2022-10-23T02:32:20;6.73;;;4.33;;
5813;SDS011;2933;52.302;8.134;2022-10-23T02:37:24;9.47;;;4.30;;
5813;SDS011;2933;52.302;8.134;2022-10-23T02:42:28;3.93;;;3.60;;
5813;SDS011;2933;52.302;8.134;2022-10-23T02:47:37;3.90;;;3.70;;
5813;SDS011;2933;52.302;8.134;2022-10-23T02:52:53;4.30;;;4.00;;
5813;SDS011;2933;52.302;8.134;2022-10-23T02:58:00;3.60;;;3.40;;
5813;SDS011;2933;52.302;8.134;2022-10-23T03:03:10;7.80;;;4.30;;
5813;SDS011;2933;52.302;8.134;2022-10-23T03:08:15;3.97;;;3.63;;
5813;SDS011;2933;52.302;8.134;2022-10-23T03:13:16;12.43;;;4.90;;
5813;SDS011;2933;52.302;8.134;2022-10-23T03:18:19;10.60;;;4.20;;
5813;SDS011;2933;52.302;8.134;2022-10-23T03:23:21;6.03;;;3.70;;
5813;SDS011;2933;52.302;8.134;2022-10-23T03:28:22;4.77;;;4.37;;
5813;SDS011;2933;52.302;8.134;2022-10-23T03:33:25;4.10;;;3.80;;
5813;SDS011;2933;52.302;8.134;2022-10-23T03:38:27;7.00;;;3.60;;
5813;SDS011;2933;52.302;8.134;2022-10-23T03:43:28;6.27;;;3.90;;
5813;SDS011;2933;52.302;8.134;2022-10-23T03:48:32;4.10;;;3.70;;
5813;SDS011;2933;52.302;8.134;2022-10-23T03:53:37;4.93;;;4.10;;
5813;SDS011;2933;52.302;8.134;2022-10-23T03:58:38;6.30;;;4.97;;
5813;SDS011;2933;52.302;8.134;2022-10-23T04:03:41;5.63;;;5.10;;
5813;SDS011;2933;52.302;8.134;2022-10-23T04:08:43;5.30;;;4.90;;
5813;SDS011;2933;52.302;8.134;2022-10-23T04:13:45;7.40;;;5.97;;
5813;SDS011;2933;52.302;8.134;2022-10-23T04:18:48;8.53;;;7.67;;
5813;SDS011;2933;52.302;8.134;2022-10-23T04:23:50;9.77;;;8.87;;
5813;SDS011;2933;52.302;8.134;2022-10-23T04:28:52;12.27;;;10.77;;
5813;SDS011;2933;52.302;8.134;2022-10-23T04:33:55;11.97;;;10.87;;
5813;SDS011;2933;52.302;8.134;2022-10-23T04:38:56;11.70;;;10.50;;
5813;SDS011;2933;52.302;8.134;2022-10-23T04:43:58;10.20;;;9.50;;
5813;SDS011;2933;52.302;8.134;2022-10-23T04:49:02;11.20;;;8.83;;
5813;SDS011;2933;52.302;8.134;2022-10-23T04:54:03;16.60;;;11.03;;
5813;SDS011;2933;52.302;8.134;2022-10-23T04:59:05;15.13;;;14.10;;
5813;SDS011;2933;52.302;8.134;2022-10-23T05:04:08;17.93;;;16.33;;
5813;SDS011;2933;52.302;8.134;2022-10-23T05:09:10;17.70;;;16.43;;
5813;SDS011;2933;52.302;8.134;2022-10-23T05:14:11;15.10;;;14.10;;
5813;SDS011;2933;52.302;8.134;2022-10-23T05:19:16;17.97;;;16.27;;
5813;SDS011;2933;52.302;8.134;2022-10-23T05:24:21;26.67;;;19.80;;
5813;SDS011;2933;52.302;8.134;2022-10-23T05:29:23;28.87;;;26.00;;
5813;SDS011;2933;52.302;8.134;2022-10-23T05:34:26;33.37;;;30.57;;
5813;SDS011;2933;52.302;8.134;2022-10-23T05:39:30;36.93;;;34.43;;
5813;SDS011;2933;52.302;8.134;2022-10-23T05:44:32;42.10;;;39.07;;
5813;SDS011;2933;52.302;8.134;2022-10-23T05:49:38;39.40;;;36.90;;
5813;SDS011;2933;52.302;8.134;2022-10-23T05:54:40;45.80;;;43.07;;
5813;SDS011;2933;52.302;8.134;2022-10-23T05:59:42;51.37;;;47.87;;
5813;SDS011;2933;52.302;8.134;2022-10-23T06:04:45;51.33;;;47.40;;
5813;SDS011;2933;52.302;8.134;2022-10-23T06:09:46;47.87;;;44.07;;
5813;SDS011;2933;52.302;8.134;2022-10-23T06:14:48;47.60;;;44.00;;
5813;SDS011;2933;52.302;8.134;2022-10-23T06:19:51;47.73;;;44.07;;
5813;SDS011;2933;52.302;8.134;2022-10-23T06:24:59;45.33;;;42.40;;
5813;SDS011;2933;52.302;8.134;2022-10-23T06:30:01;43.40;;;40.70;;
5813;SDS011;2933;52.302;8.134;2022-10-23T06:35:04;50.33;;;46.90;;
5813;SDS011;2933;52.302;8.134;2022-10-23T06:40:07;47.77;;;44.87;;
5813;SDS011;2933;52.302;8.134;2022-10-23T06:45:09;50.80;;;47.60;;
5813;SDS011;2933;52.302;8.134;2022-10-23T06:50:12;52.20;;;49.00;;
5813;SDS011;2933;52.302;8.134;2022-10-23T06:55:14;51.10;;;47.57;;
5813;SDS011;2933;52.302;8.134;2022-10-23T07:00:16;51.57;;;48.27;;
5813;SDS011;2933;52.302;8.134;2022-10-23T07:05:19;49.03;;;45.90;;
5813;SDS011;2933;52.302;8.134;2022-10-23T07:10:21;55.20;;;51.20;;
5813;SDS011;2933;52.302;8.134;2022-10-23T07:15:23;52.67;;;48.87;;
5813;SDS011;2933;52.302;8.134;2022-10-23T07:20:28;54.30;;;50.70;;
5813;SDS011;2933;52.302;8.134;2022-10-23T07:25:30;52.53;;;49.00;;
5813;SDS011;2933;52.302;8.134;2022-10-23T07:30:32;54.67;;;51.00;;
5813;SDS011;2933;52.302;8.134;2022-10-23T07:35:37;58.57;;;54.63;;
5813;SDS011;2933;52.302;8.134;2022-10-23T07:40:39;55.00;;;51.53;;
5813;SDS011;2933;52.302;8.134;2022-10-23T07:45:40;59.17;;;54.70;;
5813;SDS011;2933;52.302;8.134;2022-10-23T07:50:43;56.17;;;52.37;;
5813;SDS011;2933;52.302;8.134;2022-10-23T07:55:50;57.73;;;54.50;;
5813;SDS011;2933;52.302;8.134;2022-10-23T08:00:53;56.83;;;53.30;;
5813;SDS011;2933;52.302;8.134;2022-10-23T08:05:59;57.27;;;53.70;;
5813;SDS011;2933;52.302;8.134;2022-10-23T08:11:00;57.20;;;54.10;;
5813;SDS011;2933;52.302;8.134;2022-10-23T08:16:02;59.87;;;56.00;;
5813;SDS011;2933;52.302;8.134;2022-10-23T08:21:05;65.20;;;59.90;;
5813;SDS011;2933;52.302;8.134;2022-10-23T08:26:07;59.33;;;55.50;;
5813;SDS011;2933;52.302;8.134;2022-10-23T08:31:10;59.97;;;56.33;;
5813;SDS011;2933;52.302;8.134;2022-10-23T08:36:16;52.27;;;49.20;;
5813;SDS011;2933;52.302;8.134;2022-10-23T08:41:26;54.43;;;50.50;;
5813;SDS011;2933;52.302;8.134;2022-10-23T08:46:30;53.30;;;49.90;;
5813;SDS011;2933;52.302;8.134;2022-10-23T08:51:39;44.63;;;41.93;;
5813;SDS011;2933;52.302;8.134;2022-10-23T08:56:46;44.87;;;42.27;;
5813;SDS011;2933;52.302;8.134;2022-10-23T09:01:51;47.97;;;45.07;;
5813;SDS011;2933;52.302;8.134;2022-10-23T09:07:02;43.57;;;40.50;;
5813;SDS011;2933;52.302;8.134;2022-10-23T09:12:10;37.57;;;35.27;;
5813;SDS011;2933;52.302;8.134;2022-10-23T09:17:15;35.17;;;32.93;;
5813;SDS011;2933;52.302;8.134;2022-10-23T09:22:25;33.57;;;31.60;;
5813;SDS011;2933;52.302;8.134;2022-10-23T09:27:27;32.90;;;30.90;;
5813;SDS011;2933;52.302;8.134;2022-10-23T09:32:33;29.77;;;27.60;;
5813;SDS011;2933;52.302;8.134;2022-10-23T09:37:43;26.67;;;25.00;;
5813;SDS011;2933;52.302;8.134;2022-10-23T09:42:51;25.57;;;23.77;;
5813;SDS011;2933;52.302;8.134;2022-10-23T09:48:05;27.77;;;25.63;;
5813;SDS011;2933;52.302;8.134;2022-10-23T09:53:21;30.67;;;28.67;;
5813;SDS011;2933;52.302;8.134;2022-10-23T09:58:31;29.00;;;27.00;;
5813;SDS011;2933;52.302;8.134;2022-10-23T10:03:35;32.07;;;29.90;;
5813;SDS011;2933;52.302;8.134;2022-10-23T10:08:41;34.47;;;32.17;;
5813;SDS011;2933;52.302;8.134;2022-10-23T10:19:33;26.80;;;24.60;;
5813;SDS011;2933;52.302;8.134;2022-10-23T10:24:47;24.90;;;23.33;;
5813;SDS011;2933;52.302;8.134;2022-10-23T10:29:58;24.20;;;22.50;;
5813;SDS011;2933;52.302;8.134;2022-10-23T10:35:13;23.87;;;22.27;;
5813;SDS011;2933;52.302;8.134;2022-10-23T10:40:24;20.87;;;19.30;;
5813;SDS011;2933;52.302;8.134;2022-10-23T10:45:30;20.20;;;18.90;;
5813;SDS011;2933;52.302;8.134;2022-10-23T10:50:36;23.07;;;21.30;;
5813;SDS011;2933;52.302;8.134;2022-10-23T10:55:45;22.33;;;20.60;;
5813;SDS011;2933;52.302;8.134;2022-10-23T11:00:51;15.70;;;14.40;;
5813;SDS011;2933;52.302;8.134;2022-10-23T11:05:56;16.97;;;15.97;;
5813;SDS011;2933;52.302;8.134;2022-10-23T11:11:01;16.87;;;15.50;;
5813;SDS011;2933;52.302;8.134;2022-10-23T11:16:08;17.10;;;15.90;;
5813;SDS011;2933;52.302;8.134;2022-10-23T11:21:18;15.20;;;14.20;;
5813;SDS011;2933;52.302;8.134;2022-10-23T11:26:33;16.47;;;15.27;;
5813;SDS011;2933;52.302;8.134;2022-10-23T11:31:44;15.57;;;14.40;;
5813;SDS011;2933;52.302;8.134;2022-10-23T11:36:51;13.37;;;12.57;;
5813;SDS011;2933;52.302;8.134;2022-10-23T11:41:58;13.53;;;12.90;;
5813;SDS011;2933;52.302;8.134;2022-10-23T11:47:28;14.80;;;13.67;;
5813;SDS011;2933;52.302;8.134;2022-10-23T11:52:32;15.50;;;14.13;;
5813;SDS011;2933;52.302;8.134;2022-10-23T11:57:36;13.37;;;12.37;;
5813;SDS011;2933;52.302;8.134;2022-10-23T12:02:39;10.63;;;9.67;;
5813;SDS011;2933;52.302;8.134;2022-10-23T12:07:42;9.63;;;8.90;;
5813;SDS011;2933;52.302;8.134;2022-10-23T12:12:55;8.17;;;7.70;;
5813;SDS011;2933;52.302;8.134;2022-10-23T12:18:06;7.60;;;7.23;;
5813;SDS011;2933;52.302;8.134;2022-10-23T12:23:14;7.90;;;7.10;;
5813;SDS011;2933;52.302;8.134;2022-10-23T12:28:27;5.80;;;5.60;;
5813;SDS011;2933;52.302;8.134;2022-10-23T12:33:36;7.53;;;5.83;;
5813;SDS011;2933;52.302;8.134;2022-10-23T12:38:47;18.77;;;5.07;;
5813;SDS011;2933;52.302;8.134;2022-10-23T12:43:52;3.97;;;3.77;;
5813;SDS011;2933;52.302;8.134;2022-10-23T12:48:56;13.63;;;3.47;;
5813;SDS011;2933;52.302;8.134;2022-10-23T12:53:59;4.17;;;3.83;;
5813;SDS011;2933;52.302;8.134;2022-10-23T12:59:03;4.80;;;3.13;;
5813;SDS011;2933;52.302;8.134;2022-10-23T13:04:16;3.30;;;3.20;;
5813;SDS011;2933;52.302;8.134;2022-10-23T13:09:27;3.27;;;3.00;;
5813;SDS011;2933;52.302;8.134;2022-10-23T13:14:33;5.33;;;2.50;;
5813;SDS011;2933;52.302;8.134;2022-10-23T13:19:36;5.40;;;2.40;;
5813;SDS011;2933;52.302;8.134;2022-10-23T13:24:38;2.13;;;1.93;;
5813;SDS011;2933;52.302;8.134;2022-10-23T13:29:42;3.37;;;1.90;;
5813;SDS011;2933;52.302;8.134;2022-10-23T13:34:49;4.20;;;1.83;;
5813;SDS011;2933;52.302;8.134;2022-10-23T13:40:00;2.60;;;1.63;;
5813;SDS011;2933;52.302;8.134;2022-10-23T13:45:07;5.73;;;2.43;;
5813;SDS011;2933;52.302;8.134;2022-10-23T13:50:16;8.57;;;1.80;;
5813;SDS011;2933;52.302;8.134;2022-10-23T13:55:19;2.73;;;1.80;;
5813;SDS011;2933;52.302;8.134;2022-10-23T14:00:25;4.30;;;1.73;;
5813;SDS011;2933;52.302;8.134;2022-10-23T14:05:26;9.87;;;1.80;;
5813;SDS011;2933;52.302;8.134;2022-10-23T14:10:28;1.60;;;1.30;;
5813;SDS011;2933;52.302;8.134;2022-10-23T14:15:31;9.13;;;1.37;;
5813;SDS011;2933;52.302;8.134;2022-10-23T14:20:32;1.87;;;1.10;;
5813;SDS011;2933;52.302;8.134;2022-10-23T14:25:34;3.80;;;1.33;;
5813;SDS011;2933;52.302;8.134;2022-10-23T14:30:37;3.20;;;1.47;;
5813;SDS011;2933;52.302;8.134;2022-10-23T14:35:39;1.67;;;1.57;;
5813;SDS011;2933;52.302;8.134;2022-10-23T14:40:42;3.83;;;1.33;;
5813;SDS011;2933;52.302;8.134;2022-10-23T14:45:45;1.37;;;1.20;;
5813;SDS011;2933;52.302;8.134;2022-10-23T14:50:47;2.00;;;1.30;;
5813;SDS011;2933;52.302;8.134;2022-10-23T14:55:49;4.50;;;1.23;;
5813;SDS011;2933;52.302;8.134;2022-10-23T15:00:57;1.37;;;1.37;;
5813;SDS011;2933;52.302;8.134;2022-10-23T15:05:59;1.90;;;1.33;;
5813;SDS011;2933;52.302;8.134;2022-10-23T15:11:00;2.97;;;1.43;;
5813;SDS011;2933;52.302;8.134;2022-10-23T15:16:05;1.37;;;1.30;;
5813;SDS011;2933;52.302;8.134;2022-10-23T15:21:08;2.93;;;1.50;;
5813;SDS011;2933;52.302;8.134;2022-10-23T15:26:11;4.10;;;1.30;;
5813;SDS011;2933;52.302;8.134;2022-10-23T15:36:47;3.93;;;1.40;;
5813;SDS011;2933;52.302;8.134;2022-10-23T15:41:52;7.40;;;1.50;;
5813;SDS011;2933;52.302;8.134;2022-10-23T15:46:56;1.30;;;1.30;;
5813;SDS011;2933;52.302;8.134;2022-10-23T15:51:58;4.10;;;1.43;;
5813;SDS011;2933;52.302;8.134;2022-10-23T15:57:01;1.73;;;1.40;;
5813;SDS011;2933;52.302;8.134;2022-10-23T16:02:05;1.63;;;1.30;;
5813;SDS011;2933;52.302;8.134;2022-10-23T16:07:07;1.70;;;1.30;;
5813;SDS011;2933;52.302;8.134;2022-10-23T16:12:09;1.50;;;1.37;;
5813;SDS011;2933;52.302;8.134;2022-10-23T16:17:12;1.50;;;1.37;;
5813;SDS011;2933;52.302;8.134;2022-10-23T16:22:13;1.43;;;1.33;;
5813;SDS011;2933;52.302;8.134;2022-10-23T16:27:16;1.40;;;1.30;;
5813;SDS011;2933;52.302;8.134;2022-10-23T16:32:19;2.87;;;2.20;;
5813;SDS011;2933;52.302;8.134;2022-10-23T16:37:22;1.50;;;1.40;;
5813;SDS011;2933;52.302;8.134;2022-10-23T16:42:24;1.63;;;1.37;;
5813;SDS011;2933;52.302;8.134;2022-10-23T16:47:27;7.90;;;1.70;;
5813;SDS011;2933;52.302;8.134;2022-10-23T16:52:30;5.83;;;1.47;;
5813;SDS011;2933;52.302;8.134;2022-10-23T16:57:33;2.60;;;1.63;;
5813;SDS011;2933;52.302;8.134;2022-10-23T17:02:36;2.40;;;1.23;;
5813;SDS011;2933;52.302;8.134;2022-10-23T17:07:38;1.73;;;1.30;;
5813;SDS011;2933;52.302;8.134;2022-10-23T17:12:39;4.93;;;1.40;;
5813;SDS011;2933;52.302;8.134;2022-10-23T17:17:42;3.90;;;1.43;;
5813;SDS011;2933;52.302;8.134;2022-10-23T17:22:44;4.17;;;1.70;;
5813;SDS011;2933;52.302;8.134;2022-10-23T17:27:46;4.20;;;1.50;;
5813;SDS011;2933;52.302;8.134;2022-10-23T17:32:49;5.73;;;1.57;;
5813;SDS011;2933;52.302;8.134;2022-10-23T17:37:50;1.73;;;1.63;;
5813;SDS011;2933;52.302;8.134;2022-10-23T17:42:52;2.10;;;1.53;;
5813;SDS011;2933;52.302;8.134;2022-10-23T17:47:55;2.20;;;2.00;;
5813;SDS011;2933;52.302;8.134;2022-10-23T17:52:56;2.27;;;2.13;;
5813;SDS011;2933;52.302;8.134;2022-10-23T17:57:58;2.13;;;1.83;;
5813;SDS011;2933;52.302;8.134;2022-10-23T18:03:01;2.20;;;2.00;;
5813;SDS011;2933;52.302;8.134;2022-10-23T18:08:03;3.40;;;2.17;;
5813;SDS011;2933;52.302;8.134;2022-10-23T18:13:04;2.90;;;2.13;;
5813;SDS011;2933;52.302;8.134;2022-10-23T18:18:08;3.90;;;3.40;;
5813;SDS011;2933;52.302;8.134;2022-10-23T18:23:09;4.03;;;3.83;;
5813;SDS011;2933;52.302;8.134;2022-10-23T18:28:11;12.30;;;7.90;;
5813;SDS011;2933;52.302;8.134;2022-10-23T18:33:14;11.77;;;11.30;;
5813;SDS011;2933;52.302;8.134;2022-10-23T18:38:16;18.47;;;17.67;;
5813;SDS011;2933;52.302;8.134;2022-10-23T18:43:18;25.13;;;23.87;;
5813;SDS011;2933;52.302;8.134;2022-10-23T18:48:22;28.50;;;26.80;;
5813;SDS011;2933;52.302;8.134;2022-10-23T18:53:27;47.10;;;44.30;;
5813;SDS011;2933;52.302;8.134;2022-10-23T18:58:31;53.23;;;50.43;;
5813;SDS011;2933;52.302;8.134;2022-10-23T19:03:46;59.07;;;55.53;;
5813;SDS011;2933;52.302;8.134;2022-10-23T19:08:57;62.47;;;58.90;;
5813;SDS011;2933;52.302;8.134;2022-10-23T19:14:08;66.97;;;63.27;;
5813;SDS011;2933;52.302;8.134;2022-10-23T19:19:14;64.60;;;60.27;;
5813;SDS011;2933;52.302;8.134;2022-10-23T19:24:22;62.60;;;58.93;;
5813;SDS011;2933;52.302;8.134;2022-10-23T19:29:27;57.47;;;54.07;;
5813;SDS011;2933;52.302;8.134;2022-10-23T19:34:34;61.83;;;57.13;;
5813;SDS011;2933;52.302;8.134;2022-10-23T19:39:36;55.97;;;51.90;;
5813;SDS011;2933;52.302;8.134;2022-10-23T19:44:38;53.03;;;50.13;;
5813;SDS011;2933;52.302;8.134;2022-10-23T19:49:47;60.60;;;57.37;;
5813;SDS011;2933;52.302;8.134;2022-10-23T19:54:53;54.87;;;51.97;;
5813;SDS011;2933;52.302;8.134;2022-10-23T19:59:56;55.07;;;52.13;;
5813;SDS011;2933;52.302;8.134;2022-10-23T20:04:59;59.40;;;56.17;;
5813;SDS011;2933;52.302;8.134;2022-10-23T20:10:03;59.80;;;56.50;;
5813;SDS011;2933;52.302;8.134;2022-10-23T20:15:14;60.27;;;56.63;;
5813;SDS011;2933;52.302;8.134;2022-10-23T20:20:17;60.00;;;56.50;;
5813;SDS011;2933;52.302;8.134;2022-10-23T20:25:19;54.90;;;51.50;;
5813;SDS011;2933;52.302;8.134;2022-10-23T20:30:21;52.30;;;49.30;;
5813;SDS011;2933;52.302;8.134;2022-10-23T20:35:24;46.27;;;43.57;;
5813;SDS011;2933;52.302;8.134;2022-10-23T20:40:25;48.43;;;45.73;;
5813;SDS011;2933;52.302;8.134;2022-10-23T20:45:27;51.37;;;48.50;;
5813;SDS011;2933;52.302;8.134;2022-10-23T20:50:30;46.00;;;43.37;;
5813;SDS011;2933;52.302;8.134;2022-10-23T20:55:36;47.40;;;44.40;;
5813;SDS011;2933;52.302;8.134;2022-10-23T21:00:41;42.20;;;39.90;;
5813;SDS011;2933;52.302;8.134;2022-10-23T21:05:44;43.73;;;41.43;;
5813;SDS011;2933;52.302;8.134;2022-10-23T21:10:47;39.43;;;37.17;;
5813;SDS011;2933;52.302;8.134;2022-10-23T21:16:09;34.10;;;32.40;;
5813;SDS011;2933;52.302;8.134;2022-10-23T21:21:13;33.33;;;31.23;;
5813;SDS011;2933;52.302;8.134;2022-10-23T21:26:18;32.23;;;30.33;;
5813;SDS011;2933;52.302;8.134;2022-10-23T21:31:21;32.03;;;30.07;;
5813;SDS011;2933;52.302;8.134;2022-10-23T21:36:25;32.83;;;31.30;;
5813;SDS011;2933;52.302;8.134;2022-10-23T21:41:29;33.23;;;31.00;;
5813;SDS011;2933;52.302;8.134;2022-10-23T21:46:33;34.37;;;32.10;;
5813;SDS011;2933;52.302;8.134;2022-10-23T21:51:39;32.50;;;30.97;;
5813;SDS011;2933;52.302;8.134;2022-10-23T21:56:42;31.87;;;30.00;;
5813;SDS011;2933;52.302;8.134;2022-10-23T22:01:46;28.20;;;26.90;;
5813;SDS011;2933;52.302;8.134;2022-10-23T22:06:50;22.27;;;21.27;;
5813;SDS011;2933;52.302;8.134;2022-10-23T22:11:52;19.43;;;18.43;;
5813;SDS011;2933;52.302;8.134;2022-10-23T22:16:54;23.40;;;22.20;;
5813;SDS011;2933;52.302;8.134;2022-10-23T22:22:00;26.13;;;24.77;;
5813;SDS011;2933;52.302;8.134;2022-10-23T22:27:01;25.97;;;24.03;;
5813;SDS011;2933;52.302;8.134;2022-10-23T22:32:03;27.70;;;26.07;;
5813;SDS011;2933;52.302;8.134;2022-10-23T22:37:07;33.00;;;31.40;;
5813;SDS011;2933;52.302;8.134;2022-10-23T22:42:12;34.67;;;32.63;;
5813;SDS011;2933;52.302;8.134;2022-10-23T22:47:18;37.47;;;35.47;;
5813;SDS011;2933;52.302;8.134;2022-10-23T22:52:21;39.07;;;36.93;;
5813;SDS011;2933;52.302;8.134;2022-10-23T22:57:22;36.10;;;34.10;;
5813;SDS011;2933;52.302;8.134;2022-10-23T23:02:24;31.60;;;29.80;;
5813;SDS011;2933;52.302;8.134;2022-10-23T23:07:27;26.77;;;25.57;;
5813;SDS011;2933;52.302;8.134;2022-10-23T23:12:29;21.37;;;20.10;;
5813;SDS011;2933;52.302;8.134;2022-10-23T23:17:31;19.73;;;18.53;;
5813;SDS011;2933;52.302;8.134;2022-10-23T23:22:34;17.77;;;16.67;;
5813;SDS011;2933;52.302;8.134;2022-10-23T23:27:36;17.73;;;16.80;;
5813;SDS011;2933;52.302;8.134;2022-10-23T23:32:39;19.90;;;18.40;;
5813;SDS011;2933;52.302;8.134;2022-10-23T23:37:42;17.23;;;16.20;;
5813;SDS011;2933;52.302;8.134;2022-10-23T23:42:44;18.30;;;16.90;;
5813;SDS011;2933;52.302;8.134;2022-10-23T23:47:45;16.90;;;16.00;;
5813;SDS011;2933;52.302;8.134;2022-10-23T23:52:48;14.70;;;14.10;;
5813;SDS011;2933;52.302;8.134;2022-10-23T23:57:50;17.00;;;16.00;;
